.
WxDataArchive / Data Records for 2009-12-23
2009-12-22 December 2009 2009-12-24

Data Records for Wednesday, 23 December 2009

Time	Temp	Chill	HIndex	Humid	Dewpt	 Wind 	HiWind	WindDir	Rain 	Barom 
-----	----	-----	------	-----	-----	------	------	-------	-----	----- 
00:00	27.8	23.2	27.8	88	24.7	4	9	90	0.00	30.336 
00:05	27.8	23.2	27.8	88	24.7	4	9	112	0.00	30.336 
00:10	27.8	27.8	27.8	88	24.7	3	6	112	0.00	30.336 
00:15	27.8	23.2	27.8	88	24.7	4	11	90	0.00	30.341 
00:20	27.8	22.1	27.8	88	24.7	5	11	112	0.00	30.341 
00:25	27.8	22.1	27.8	88	24.7	5	10	90	0.00	30.341 
00:30	27.8	23.2	27.8	88	24.7	4	9	90	0.00	30.340 
00:35	27.8	22.1	27.8	88	24.7	5	11	90	0.00	30.340 
00:40	27.6	21.9	27.6	88	24.5	5	11	90	0.00	30.340 
00:45	27.6	21.9	27.6	88	24.5	5	12	90	0.00	30.340 
00:50	27.6	21.9	27.6	88	24.5	5	12	112	0.00	30.340 
00:55	27.6	21.9	27.6	88	24.5	5	11	112	0.00	30.340 
01:00	27.5	21.8	27.5	88	24.4	5	12	90	0.00	30.340 
01:05	27.5	21.8	27.5	88	24.4	5	13	90	0.00	30.340 
01:10	27.5	21.8	27.5	88	24.4	5	13	90	0.00	30.340 
01:15	27.5	21.8	27.5	87	24.1	5	13	90	0.00	30.338 
01:20	27.5	21.8	27.5	87	24.1	5	14	90	0.00	30.338 
01:25	27.5	21.8	27.5	87	24.1	5	11	90	0.00	30.338 
01:30	27.3	21.6	27.3	87	24.0	5	10	90	0.00	30.345 
01:35	27.3	20.6	27.3	87	24.0	6	12	90	0.00	30.345 
01:40	27.3	22.6	27.3	87	24.0	4	10	112	0.00	30.345 
01:45	27.2	21.4	27.2	87	23.9	5	12	90	0.00	30.343 
01:50	27.2	22.5	27.2	87	23.9	4	11	90	0.00	30.343 
01:55	27.2	21.4	27.2	87	23.9	5	12	112	0.00	30.343 
02:00	27.2	21.4	27.2	87	23.9	5	10	90	0.00	30.344 
02:05	27.2	22.5	27.2	87	23.9	4	10	90	0.00	30.344 
02:10	27.0	21.2	27.0	87	23.7	5	10	90	0.00	30.344 
02:15	27.0	27.0	27.0	88	23.9	3	11	112	0.00	30.345 
02:20	27.0	21.2	27.0	88	23.9	5	10	90	0.00	30.345 
02:25	27.0	21.2	27.0	88	23.9	5	11	90	0.00	30.345 
02:30	27.0	20.3	27.0	87	23.7	6	12	112	0.00	30.346 
02:35	27.0	22.3	27.0	87	23.7	4	13	90	0.00	30.346 
02:40	27.0	27.0	27.0	87	23.7	3	7	90	0.00	30.346 
02:45	26.9	22.2	26.9	87	23.6	4	10	112	0.00	30.357 
02:50	26.9	20.2	26.9	87	23.6	6	12	90	0.00	30.357 
02:55	26.9	21.1	26.9	87	23.6	5	11	112	0.00	30.357 
03:00	26.9	22.2	26.9	87	23.6	4	11	112	0.00	30.354 
03:05	26.9	22.2	26.9	87	23.6	4	9	112	0.00	30.354 
03:10	26.9	26.9	26.9	87	23.6	3	9	90	0.00	30.354 
03:15	26.7	22.0	26.7	87	23.4	4	13	112	0.00	30.354 
03:20	26.7	26.7	26.7	86	23.1	3	7	112	0.00	30.354 
03:25	26.7	22.0	26.7	86	23.1	4	13	112	0.00	30.354 
03:30	26.7	20.9	26.7	86	23.1	5	10	112	0.00	30.349 
03:35	26.6	21.8	26.6	86	23.0	4	8	112	0.00	30.349 
03:40	26.6	21.8	26.6	86	23.0	4	10	112	0.00	30.349 
03:45	26.6	21.8	26.6	86	23.0	4	9	90	0.00	30.351 
03:50	26.6	21.8	26.6	86	23.0	4	12	112	0.00	30.351 
03:55	26.6	21.8	26.6	86	23.0	4	9	112	0.00	30.351 
04:00	26.7	22.0	26.7	85	22.8	4	12	90	0.00	30.353 
04:05	26.7	20.9	26.7	85	22.8	5	10	112	0.00	30.353 
04:10	26.7	20.9	26.7	85	22.8	5	12	90	0.00	30.353 
04:15	26.7	20.9	26.7	84	22.5	5	11	90	0.00	30.354 
04:20	26.7	20.9	26.7	84	22.5	5	12	90	0.00	30.354 
04:25	26.7	20.9	26.7	84	22.5	5	14	112	0.00	30.354 
04:30	26.7	20.9	26.7	84	22.5	5	11	90	0.00	30.356 
04:35	26.7	20.9	26.7	84	22.5	5	11	112	0.00	30.356 
04:40	26.7	19.9	26.7	84	22.5	6	12	90	0.00	30.356 
04:45	26.7	22.0	26.7	84	22.5	4	12	90	0.00	30.353 
04:50	26.7	20.9	26.7	84	22.5	5	11	90	0.00	30.353 
04:55	26.7	20.9	26.7	84	22.5	5	13	90	0.00	30.353 
05:00	26.7	22.0	26.7	85	22.8	4	11	90	0.00	30.347 
05:05	26.6	20.7	26.6	84	22.4	5	14	90	0.00	30.347 
05:10	26.7	20.9	26.7	84	22.5	5	9	90	0.00	30.347 
05:15	26.7	20.9	26.7	84	22.5	5	12	90	0.00	30.351 
05:20	26.7	19.9	26.7	84	22.5	6	12	90	0.00	30.351 
05:25	26.7	19.9	26.7	84	22.5	6	14	90	0.00	30.351 
05:30	26.7	19.9	26.7	84	22.5	6	16	90	0.00	30.355 
05:35	26.7	19.9	26.7	84	22.5	6	11	90	0.00	30.355 
05:40	26.7	20.9	26.7	84	22.5	5	12	90	0.00	30.355 
05:45	26.7	20.9	26.7	84	22.5	5	13	90	0.00	30.350 
05:50	26.7	20.9	26.7	84	22.5	5	12	90	0.00	30.350 
05:55	26.7	20.9	26.7	84	22.5	5	12	90	0.00	30.350 
06:00	26.7	20.9	26.7	84	22.5	5	13	112	0.00	30.350 
06:05	26.6	19.0	26.6	84	22.4	7	14	112	0.00	30.350 
06:10	26.6	20.7	26.6	84	22.4	5	10	90	0.00	30.350 
06:15	26.6	19.8	26.6	84	22.4	6	12	112	0.00	30.355 
06:20	26.6	18.3	26.6	84	22.4	8	14	90	0.00	30.355 
06:25	26.6	19.0	26.6	84	22.4	7	13	90	0.00	30.355 
06:30	26.6	19.0	26.6	84	22.4	7	13	112	0.00	30.349 
06:35	26.6	20.7	26.6	84	22.4	5	9	90	0.00	30.349 
06:40	26.6	21.8	26.6	84	22.4	4	11	90	0.00	30.349 
06:45	26.6	19.8	26.6	84	22.4	6	12	90	0.00	30.351 
06:50	26.4	19.6	26.4	84	22.2	6	12	112	0.00	30.351 
06:55	26.4	18.7	26.4	83	22.0	7	16	90	0.00	30.351 
07:00	26.4	19.6	26.4	84	22.2	6	12	90	0.00	30.350 
07:05	26.4	18.7	26.4	83	22.0	7	13	90	0.00	30.350 
07:10	26.4	20.5	26.4	83	22.0	5	12	90	0.00	30.350 
07:15	26.4	20.5	26.4	83	22.0	5	11	90	0.00	30.352 
07:20	26.4	21.6	26.4	83	22.0	4	9	90	0.00	30.352 
07:25	26.3	20.4	26.3	83	21.9	5	12	90	0.00	30.352 
07:30	26.3	19.4	26.3	83	21.9	6	16	112	0.00	30.366 
07:35	26.3	20.4	26.3	83	21.9	5	12	90	0.00	30.366 
07:40	26.3	20.4	26.3	83	21.9	5	11	112	0.00	30.366 
07:45	26.3	20.4	26.3	83	21.9	5	11	90	0.00	30.366 
07:50	26.3	18.6	26.3	83	21.9	7	14	90	0.00	30.366 
07:55	26.3	20.4	26.3	83	21.9	5	13	90	0.00	30.366 
08:00	26.1	19.2	26.1	83	21.7	6	14	112	0.00	30.365 
08:05	26.1	20.1	26.1	83	21.7	5	12	90	0.00	30.365 
08:10	26.1	20.1	26.1	83	21.7	5	11	90	0.00	30.365 
08:15	26.1	19.2	26.1	83	21.7	6	13	90	0.00	30.369 
08:20	26.1	19.2	26.1	83	21.7	6	12	90	0.00	30.369 
08:25	26.1	20.1	26.1	83	21.7	5	14	112	0.00	30.369 
08:30	26.1	20.1	26.1	83	21.7	5	11	90	0.00	30.365 
08:35	26.1	20.1	26.1	83	21.7	5	12	112	0.00	30.365 
08:40	26.3	21.5	26.3	83	21.9	4	9	90	0.00	30.365 
08:45	26.3	20.4	26.3	83	21.9	5	11	112	0.00	30.366 
08:50	26.3	19.4	26.3	82	21.6	6	13	90	0.00	30.366 
08:55	26.3	20.4	26.3	82	21.6	5	13	112	0.00	30.366 
09:00	26.3	20.4	26.3	82	21.6	5	10	112	0.00	30.365 
09:05	26.4	19.6	26.4	82	21.7	6	14	112	0.00	30.365 
09:10	26.4	19.6	26.4	82	21.7	6	11	90	0.00	30.365 
09:15	26.4	20.5	26.4	82	21.7	5	12	112	0.00	30.370 
09:20	26.6	19.8	26.6	82	21.9	6	12	112	0.00	30.370 
09:25	26.6	19.8	26.6	82	21.9	6	11	112	0.00	30.370 
09:30	26.6	19.8	26.6	81	21.6	6	12	90	0.00	30.375 
09:35	26.6	19.8	26.6	81	21.6	6	14	112	0.00	30.375 
09:40	26.7	20.9	26.7	81	21.7	5	13	90	0.00	30.375 
09:45	26.7	19.9	26.7	81	21.7	6	11	90	0.00	30.389 
09:50	26.7	19.9	26.7	81	21.7	6	14	112	0.00	30.389 
09:55	26.7	20.9	26.7	82	22.0	5	12	112	0.00	30.389 
10:00	26.7	19.9	26.7	82	22.0	6	12	112	0.00	30.386 
10:05	26.7	22.0	26.7	82	22.0	4	12	90	0.00	30.386 
10:10	26.7	20.9	26.7	82	22.0	5	10	90	0.00	30.386 
10:15	26.7	19.1	26.7	82	22.0	7	16	90	0.00	30.390 
10:20	26.9	21.1	26.9	82	22.2	5	10	90	0.00	30.390 
10:25	26.9	20.2	26.9	82	22.2	6	14	90	0.00	30.390 
10:30	27.0	20.3	27.0	81	22.0	6	13	112	0.00	30.386 
10:35	27.0	20.3	27.0	81	22.0	6	12	112	0.00	30.386 
10:40	27.2	21.4	27.2	81	22.2	5	11	112	0.00	30.386 
10:45	27.2	21.4	27.2	82	22.4	5	13	90	0.00	30.383 
10:50	27.2	21.4	27.2	81	22.2	5	12	112	0.00	30.383 
10:55	27.2	20.5	27.2	81	22.2	6	12	90	0.00	30.383 
11:00	27.2	22.5	27.2	81	22.2	4	9	90	0.00	30.391 
11:05	27.3	21.6	27.3	81	22.3	5	16	112	0.00	30.391 
11:10	27.3	20.6	27.3	81	22.3	6	11	90	0.00	30.391 
11:15	27.3	20.6	27.3	81	22.3	6	13	112	0.00	30.388 
11:20	27.5	22.9	27.5	81	22.4	4	12	90	0.00	30.388 
11:25	27.5	21.8	27.5	81	22.4	5	12	90	0.00	30.388 
11:30	27.5	21.8	27.5	81	22.4	5	14	90	0.00	30.386 
11:35	27.5	21.8	27.5	81	22.4	5	11	112	0.00	30.386 
11:40	27.5	21.8	27.5	81	22.4	5	10	112	0.00	30.386 
11:45	27.5	27.5	27.5	81	22.4	3	11	90	0.00	30.391 
11:50	27.6	21.9	27.6	81	22.5	5	11	90	0.00	30.391 
11:55	27.6	21.9	27.6	81	22.5	5	17	90	0.00	30.391 
12:00	27.6	23.0	27.6	81	22.5	4	11	90	0.00	30.389 
12:05	27.6	21.0	27.6	80	22.3	6	14	90	0.00	30.389 
12:10	27.8	23.2	27.8	81	22.7	4	11	90	0.00	30.389 
12:15	27.9	27.9	27.9	81	22.8	3	7	90	0.00	30.381 
12:20	27.9	23.3	27.9	81	22.8	4	10	90	0.00	30.381 
12:25	27.9	21.3	27.9	80	22.5	6	14	90	0.00	30.381 
12:30	27.9	23.3	27.9	80	22.5	4	11	112	0.00	30.368 
12:35	28.1	22.5	28.1	80	22.7	5	11	90	0.00	30.368 
12:40	27.9	22.3	27.9	79	22.2	5	14	90	0.00	30.368 
12:45	27.9	22.3	27.9	79	22.2	5	10	90	0.00	30.364 
12:50	27.8	21.2	27.8	79	22.2	6	11	90	0.00	30.364 
12:55	27.8	21.2	27.8	79	22.2	6	11	90	0.00	30.364 
13:00	27.8	21.2	27.8	79	22.2	6	11	112	0.00	30.362 
13:05	27.8	19.7	27.8	79	22.2	8	16	90	0.00	30.362 
13:10	27.8	20.4	27.8	79	22.2	7	15	112	0.00	30.362 
13:15	27.8	22.1	27.8	79	22.2	5	12	112	0.00	30.350 
13:20	27.8	20.4	27.8	79	22.2	7	15	112	0.00	30.350 
13:25	27.8	21.2	27.8	78	21.8	6	13	112	0.00	30.350 
13:30	27.8	21.2	27.8	79	22.2	6	12	90	0.00	30.344 
13:35	27.8	22.1	27.8	79	22.2	5	13	90	0.00	30.344 
13:40	27.9	23.3	27.9	79	22.2	4	9	90	0.00	30.344 
13:45	27.9	23.3	27.9	79	22.2	4	10	112	0.00	30.334 
13:50	27.8	21.2	27.8	80	22.4	6	11	112	0.00	30.334 
13:55	27.8	21.2	27.8	80	22.4	6	13	112	0.00	30.334 
14:00	27.8	20.4	27.8	79	22.2	7	14	90	0.00	30.331 
14:05	27.8	23.2	27.8	80	22.4	4	7	112	0.00	30.331 
14:10	27.8	21.2	27.8	79	22.2	6	12	90	0.00	30.331 
14:15	27.8	20.4	27.8	79	22.2	7	15	90	0.00	30.328 
14:20	27.9	22.3	27.9	79	22.2	5	13	112	0.00	30.328 
14:25	27.9	22.3	27.9	79	22.2	5	10	90	0.00	30.328 
14:30	27.8	20.4	27.8	78	21.8	7	15	90	0.00	30.331 
14:35	27.8	19.7	27.8	78	21.8	8	14	90	0.00	30.331 
14:40	27.8	20.4	27.8	78	21.8	7	14	90	0.00	30.331 
14:45	27.8	21.2	27.8	78	21.8	6	13	112	0.00	30.327 
14:50	27.8	22.1	27.8	78	21.8	5	13	90	0.00	30.327 
14:55	27.8	20.4	27.8	78	21.8	7	12	90	0.00	30.327 
15:00	27.9	22.3	27.9	78	21.9	5	9	90	0.00	30.322 
15:05	27.9	22.3	27.9	79	22.2	5	12	112	0.00	30.322 
15:10	27.9	20.6	27.9	78	21.9	7	16	90	0.00	30.322 
15:15	28.1	28.1	28.1	79	22.4	3	7	112	0.00	30.324 
15:20	28.1	22.5	28.1	78	22.1	5	13	112	0.00	30.324 
15:25	28.1	22.5	28.1	79	22.4	5	14	90	0.00	30.324 
15:30	28.1	23.6	28.1	79	22.4	4	9	112	0.00	30.332 
15:35	27.9	21.3	27.9	79	22.2	6	12	112	0.00	30.332 
15:40	27.9	21.3	27.9	79	22.2	6	13	90	0.00	30.332 
15:45	27.9	23.3	27.9	80	22.5	4	12	90	0.00	30.333 
15:50	27.9	22.3	27.9	80	22.5	5	10	90	0.00	30.333 
15:55	27.9	21.3	27.9	80	22.5	6	13	90	0.00	30.333 
16:00	27.9	21.3	27.9	81	22.8	6	13	90	0.00	30.326 
16:05	27.9	21.3	27.9	81	22.8	6	13	90	0.00	30.326 
16:10	27.9	22.3	27.9	81	22.8	5	12	90	0.00	30.326 
16:15	27.9	21.3	27.9	81	22.8	6	12	112	0.00	30.328 
16:20	27.8	22.1	27.8	82	23.0	5	11	90	0.00	30.328 
16:25	27.9	22.3	27.9	82	23.1	5	11	112	0.00	30.328 
16:30	27.9	22.3	27.9	82	23.1	5	11	90	0.00	30.330 
16:35	27.9	21.3	27.9	82	23.1	6	11	90	0.00	30.330 
16:40	27.9	21.3	27.9	82	23.1	6	10	90	0.00	30.330 
16:45	27.9	23.3	27.9	82	23.1	4	12	90	0.00	30.333 
16:50	27.9	22.3	27.9	82	23.1	5	11	112	0.00	30.333 
16:55	27.9	21.3	27.9	82	23.1	6	11	90	0.00	30.333 
17:00	27.9	21.3	27.9	82	23.1	6	12	90	0.00	30.330 
17:05	27.9	21.3	27.9	82	23.1	6	13	112	0.00	30.330 
17:10	27.9	22.3	27.9	82	23.1	5	10	112	0.00	30.330 
17:15	28.1	23.6	28.1	82	23.3	4	9	112	0.00	30.335 
17:20	28.1	21.6	28.1	81	23.0	6	10	112	0.00	30.335 
17:25	28.1	23.6	28.1	81	23.0	4	9	90	0.00	30.335 
17:30	28.1	23.6	28.1	81	23.0	4	10	90	0.00	30.343 
17:35	28.1	21.6	28.1	81	23.0	6	13	112	0.00	30.343 
17:40	28.2	21.7	28.2	81	23.1	6	14	90	0.00	30.343 
17:45	28.2	21.7	28.2	81	23.1	6	13	112	0.00	30.333 
17:50	28.2	23.7	28.2	81	23.1	4	11	112	0.00	30.333 
17:55	28.2	23.7	28.2	81	23.1	4	9	112	0.00	30.333 
18:00	28.1	22.5	28.1	81	23.0	5	11	90	0.00	30.337 
18:05	28.2	23.7	28.2	81	23.1	4	11	90	0.00	30.337 
18:10	28.2	22.6	28.2	81	23.1	5	11	90	0.00	30.337 
18:15	28.2	21.7	28.2	81	23.1	6	11	90	0.00	30.334 
18:20	28.2	21.7	28.2	81	23.1	6	12	90	0.00	30.334 
18:25	28.2	22.6	28.2	81	23.1	5	10	112	0.00	30.334 
18:30	28.2	22.6	28.2	81	23.1	5	13	90	0.00	30.335 
18:35	28.2	22.6	28.2	81	23.1	5	13	90	0.00	30.335 
18:40	28.2	23.7	28.2	81	23.1	4	13	90	0.00	30.335 
18:45	28.2	22.6	28.2	81	23.1	5	11	90	0.00	30.337 
18:50	28.2	21.7	28.2	81	23.1	6	13	90	0.00	30.337 
18:55	28.2	22.6	28.2	81	23.1	5	11	90	0.00	30.337 
19:00	28.2	21.7	28.2	81	23.1	6	14	90	0.00	30.333 
19:05	28.2	23.7	28.2	80	22.8	4	8	90	0.00	30.333 
19:10	28.2	23.7	28.2	81	23.1	4	12	90	0.00	30.333 
19:15	28.2	22.6	28.2	81	23.1	5	11	90	0.00	30.332 
19:20	28.2	23.7	28.2	81	23.1	4	9	90	0.00	30.332 
19:25	28.2	22.6	28.2	81	23.1	5	10	112	0.00	30.332 
19:30	28.2	21.7	28.2	81	23.1	6	11	112	0.00	30.332 
19:35	28.2	23.7	28.2	81	23.1	4	12	112	0.00	30.332 
19:40	28.2	22.6	28.2	81	23.1	5	10	90	0.00	30.332 
19:45	28.2	20.9	28.2	81	23.1	7	13	112	0.00	30.328 
19:50	28.2	20.9	28.2	81	23.1	7	13	90	0.00	30.328 
19:55	28.2	20.9	28.2	80	22.8	7	14	112	0.00	30.328 
20:00	28.1	20.8	28.1	80	22.7	7	14	112	0.00	30.325 
20:05	28.1	21.6	28.1	81	23.0	6	13	112	0.00	30.325 
20:10	28.1	20.1	28.1	80	22.7	8	17	112	0.00	30.325 
20:15	28.1	20.8	28.1	81	23.0	7	13	90	0.00	30.316 
20:20	28.1	22.5	28.1	81	23.0	5	12	90	0.00	30.316 
20:25	27.9	21.3	27.9	81	22.8	6	13	90	0.00	30.316 
20:30	27.9	21.3	27.9	81	22.8	6	13	90	0.00	30.318 
20:35	27.9	21.3	27.9	81	22.8	6	12	112	0.00	30.318 
20:40	27.9	20.6	27.9	81	22.8	7	14	90	0.00	30.318 
20:45	27.9	21.3	27.9	81	22.8	6	13	90	0.00	30.322 
20:50	27.9	22.3	27.9	81	22.8	5	11	90	0.00	30.322 
20:55	27.9	22.3	27.9	81	22.8	5	12	90	0.00	30.322 
21:00	27.8	21.2	27.8	81	22.7	6	13	112	0.00	30.317 
21:05	27.8	21.2	27.8	81	22.7	6	12	90	0.00	30.317 
21:10	27.8	21.2	27.8	80	22.4	6	14	112	0.00	30.317 
21:15	27.8	21.2	27.8	81	22.7	6	13	112	0.00	30.315 
21:20	27.8	21.2	27.8	81	22.7	6	12	90	0.00	30.315 
21:25	27.8	21.2	27.8	80	22.4	6	11	90	0.00	30.315 
21:30	27.8	20.4	27.8	80	22.4	7	15	90	0.00	30.307 
21:35	27.9	19.9	27.9	80	22.5	8	12	90	0.00	30.307 
21:40	27.9	21.3	27.9	80	22.5	6	13	112	0.00	30.307 
21:45	27.9	21.3	27.9	80	22.5	6	12	90	0.00	30.307 
21:50	27.9	21.3	27.9	80	22.5	6	15	112	0.00	30.307 
21:55	27.9	20.6	27.9	80	22.5	7	13	90	0.00	30.307 
22:00	27.9	20.6	27.9	80	22.5	7	14	90	0.00	30.302 
22:05	27.9	20.6	27.9	80	22.5	7	14	112	0.00	30.302 
22:10	27.9	20.6	27.9	79	22.2	7	14	90	0.00	30.302 
22:15	27.9	20.6	27.9	79	22.2	7	15	90	0.00	30.301 
22:20	27.9	21.3	27.9	80	22.5	6	12	90	0.00	30.301 
22:25	28.1	21.6	28.1	79	22.4	6	12	112	0.00	30.301 
22:30	28.1	22.5	28.1	80	22.7	5	11	90	0.00	30.295 
22:35	28.1	21.6	28.1	79	22.4	6	12	90	0.00	30.295 
22:40	28.1	21.6	28.1	79	22.4	6	14	112	0.00	30.295 
22:45	28.1	20.1	28.1	79	22.4	8	19	90	0.00	30.294 
22:50	28.1	20.8	28.1	79	22.4	7	14	112	0.00	30.294 
22:55	28.1	20.8	28.1	79	22.4	7	14	112	0.00	30.294 
23:00	28.1	21.6	28.1	79	22.4	6	12	90	0.00	30.295 
23:05	28.1	20.1	28.1	78	22.1	8	18	112	0.00	30.295 
23:10	28.1	20.1	28.1	78	22.1	8	16	90	0.00	30.295 
23:15	28.1	20.1	28.1	78	22.1	8	17	90	0.00	30.287 
23:20	28.1	20.1	28.1	78	22.1	8	14	90	0.00	30.287 
23:25	28.1	21.6	28.1	79	22.4	6	13	90	0.00	30.287 
23:30	28.1	20.8	28.1	79	22.4	7	17	90	0.00	30.283 
23:35	27.9	21.3	27.9	79	22.2	6	15	112	0.00	30.283 
23:40	27.9	22.3	27.9	79	22.2	5	14	112	0.00	30.283 
23:45	28.1	20.8	28.1	79	22.4	7	13	90	0.00	30.284 
23:50	28.1	22.5	28.1	79	22.4	5	11	90	0.00	30.284 
23:55	28.1	20.8	28.1	79	22.4	7	14	90	0.00	30.284 

CoCoRaHS
IN-AL-39
A2 Web Hosting
Creative Commons License
GoDaddy
search engine by freefind advanced

loaded 2018-11-17 18:59:04 • last modified 2010-11-18 10:43:29
Privacy PolicyDisclaimer
• wx.awcolley.com is powered by PmWiki v.2002016 •
• all content (unless otherwise noted) © 2018 A W Colley